createdAt,value
2017-08-09T00:00:32.945Z,23.66
2017-08-09T00:01:13.834Z,23.62
2017-08-09T00:01:54.761Z,23.66
2017-08-09T00:02:35.674Z,23.51
2017-08-09T00:03:16.571Z,23.58
2017-08-09T00:03:57.467Z,23.59
2017-08-09T00:04:38.359Z,23.59
2017-08-09T00:05:19.254Z,23.59
2017-08-09T00:06:00.138Z,23.68
2017-08-09T00:06:41.063Z,23.59
2017-08-09T00:07:21.953Z,23.61
2017-08-09T00:08:02.853Z,23.71
2017-08-09T00:08:43.751Z,23.8
2017-08-09T00:09:24.637Z,23.71
2017-08-09T00:10:05.530Z,23.78
2017-08-09T00:10:46.411Z,23.81
2017-08-09T00:11:27.310Z,23.66
2017-08-09T00:12:08.206Z,23.74
2017-08-09T00:12:49.099Z,23.77
2017-08-09T00:13:29.991Z,23.73
2017-08-09T00:14:10.895Z,23.73
2017-08-09T00:14:51.783Z,23.69
2017-08-09T00:15:32.664Z,23.58
2017-08-09T00:16:13.564Z,23.62
2017-08-09T00:16:54.459Z,23.62
2017-08-09T00:17:35.389Z,23.63
2017-08-09T00:18:16.281Z,23.62
2017-08-09T00:18:57.174Z,23.63
2017-08-09T00:19:38.068Z,23.61
2017-08-09T00:20:18.957Z,23.62
2017-08-09T00:20:59.850Z,23.61
2017-08-09T00:21:40.842Z,23.58
2017-08-09T00:22:21.739Z,23.62
2017-08-09T00:23:02.636Z,23.63
2017-08-09T00:23:43.530Z,23.56
2017-08-09T00:24:24.426Z,23.58
2017-08-09T00:25:05.303Z,23.56
2017-08-09T00:25:46.196Z,23.61
2017-08-09T00:26:27.086Z,23.61
2017-08-09T00:27:07.979Z,23.56
2017-08-09T00:27:48.887Z,23.5
2017-08-09T00:28:29.784Z,23.56
2017-08-09T00:29:10.784Z,23.58
2017-08-09T00:29:51.665Z,23.66
2017-08-09T00:30:32.562Z,23.68
2017-08-09T00:31:13.463Z,23.61
2017-08-09T00:31:54.370Z,23.61
2017-08-09T00:32:35.270Z,23.62
2017-08-09T00:33:16.173Z,23.55
2017-08-09T00:33:57.061Z,23.51
2017-08-09T00:34:37.953Z,23.46
2017-08-09T00:35:18.848Z,23.55
2017-08-09T00:35:59.745Z,23.47
2017-08-09T00:36:40.649Z,23.54
2017-08-09T00:37:21.551Z,23.48
2017-08-09T00:38:02.446Z,23.54
2017-08-09T00:38:43.323Z,23.54
2017-08-09T00:39:24.242Z,23.54
2017-08-09T00:40:05.134Z,23.51
2017-08-09T00:40:46.041Z,23.51
2017-08-09T00:41:26.942Z,23.5
2017-08-09T00:42:07.822Z,23.46
2017-08-09T00:42:48.720Z,23.47
2017-08-09T00:43:29.610Z,23.46
2017-08-09T00:44:10.539Z,23.5
2017-08-09T00:44:51.434Z,23.43
2017-08-09T00:45:32.330Z,23.46
2017-08-09T00:46:13.219Z,23.39
2017-08-09T00:46:54.105Z,23.43
2017-08-09T00:47:35.017Z,23.37
2017-08-09T00:48:15.908Z,23.37
2017-08-09T00:48:56.809Z,23.4
2017-08-09T00:49:37.711Z,23.43
2017-08-09T00:50:18.608Z,23.48
2017-08-09T00:50:59.512Z,23.44
2017-08-09T00:51:40.400Z,23.41
2017-08-09T00:52:21.300Z,23.41
2017-08-09T00:53:02.188Z,23.4
2017-08-09T00:53:43.087Z,23.4
2017-08-09T00:54:23.979Z,23.41
2017-08-09T00:55:04.911Z,23.4
2017-08-09T00:55:45.783Z,23.39
2017-08-09T00:56:26.682Z,23.41
2017-08-09T00:57:07.559Z,23.39
2017-08-09T00:57:48.446Z,23.37
2017-08-09T00:58:29.337Z,23.43
2017-08-09T00:59:10.229Z,23.34
2017-08-09T00:59:51.125Z,23.43
2017-08-09T01:00:32.016Z,23.39
2017-08-09T01:01:12.915Z,23.44
2017-08-09T01:01:53.813Z,23.37
2017-08-09T01:02:34.722Z,23.46
2017-08-09T01:03:15.606Z,23.34
2017-08-09T01:03:56.493Z,23.31
2017-08-09T01:04:37.383Z,23.28
2017-08-09T01:05:18.281Z,23.28
2017-08-09T01:05:59.176Z,23.24
2017-08-09T01:06:40.077Z,23.28
2017-08-09T01:07:20.950Z,23.34
2017-08-09T01:08:01.844Z,23.28
2017-08-09T01:08:42.737Z,23.28
2017-08-09T01:09:23.633Z,23.27
2017-08-09T01:10:04.528Z,23.25
2017-08-09T01:10:45.426Z,23.21
2017-08-09T01:11:26.317Z,23.32
2017-08-09T01:12:07.209Z,23.24
2017-08-09T01:12:49.542Z,23.31
2017-08-09T01:13:30.459Z,23.28
2017-08-09T01:14:11.356Z,23.31
2017-08-09T01:14:52.246Z,23.34
2017-08-09T01:15:33.158Z,23.31
2017-08-09T01:16:14.062Z,23.28
2017-08-09T01:16:54.945Z,23.28
2017-08-09T01:17:35.834Z,23.34
2017-08-09T01:18:16.725Z,23.31
2017-08-09T01:18:57.626Z,23.23
2017-08-09T01:19:38.552Z,23.28
2017-08-09T01:20:19.434Z,23.25
2017-08-09T01:21:00.360Z,23.36
2017-08-09T01:21:41.227Z,23.24
2017-08-09T01:22:22.128Z,23.37
2017-08-09T01:23:03.021Z,23.37
2017-08-09T01:23:43.926Z,23.27
2017-08-09T01:24:24.825Z,23.31
2017-08-09T01:25:05.717Z,23.32
2017-08-09T01:25:46.619Z,23.27
2017-08-09T01:26:27.510Z,23.25
2017-08-09T01:27:08.407Z,23.32
2017-08-09T01:27:49.302Z,23.21
2017-08-09T01:28:30.205Z,23.34
2017-08-09T01:29:11.095Z,23.31
2017-08-09T01:29:51.990Z,23.23
2017-08-09T01:30:32.891Z,23.32
2017-08-09T01:31:13.775Z,23.23
2017-08-09T01:31:54.661Z,23.25
2017-08-09T01:32:35.557Z,23.21
2017-08-09T01:33:16.450Z,23.34
2017-08-09T01:33:57.347Z,23.28
2017-08-09T01:34:38.241Z,23.28
2017-08-09T01:35:19.129Z,23.31
2017-08-09T01:36:00.022Z,23.28
2017-08-09T01:36:40.972Z,23.32
2017-08-09T01:37:21.867Z,23.32
2017-08-09T01:38:02.769Z,23.32
2017-08-09T01:38:43.667Z,23.44
2017-08-09T01:39:24.585Z,23.44
2017-08-09T01:40:05.486Z,23.41
2017-08-09T01:40:46.374Z,23.37
2017-08-09T01:41:27.284Z,23.34
2017-08-09T01:42:08.196Z,23.43
2017-08-09T01:42:49.081Z,23.44
2017-08-09T01:43:29.972Z,23.47
2017-08-09T01:44:10.866Z,23.39
2017-08-09T01:44:51.777Z,23.32
2017-08-09T01:45:32.669Z,23.34
2017-08-09T01:46:13.578Z,23.25
2017-08-09T01:46:54.468Z,23.25
2017-08-09T01:47:35.360Z,23.31
2017-08-09T01:48:16.277Z,23.31
2017-08-09T01:48:57.182Z,23.36
2017-08-09T01:49:38.076Z,23.36
2017-08-09T01:50:18.975Z,23.32
2017-08-09T01:50:59.864Z,23.31
2017-08-09T01:51:40.758Z,23.41
2017-08-09T01:52:21.650Z,23.32
2017-08-09T01:53:02.565Z,23.41
2017-08-09T01:53:43.452Z,23.41
2017-08-09T01:54:24.347Z,23.44
2017-08-09T01:55:05.296Z,23.43
2017-08-09T01:55:46.185Z,23.32
2017-08-09T01:56:27.086Z,23.43
2017-08-09T01:57:07.976Z,23.24
2017-08-09T01:57:48.875Z,23.1
2017-08-09T01:58:29.781Z,23.09
2017-08-09T01:59:10.661Z,23.17
2017-08-09T01:59:51.567Z,23.25
2017-08-09T02:00:32.460Z,23.27
2017-08-09T02:01:13.357Z,23.27
2017-08-09T02:01:54.246Z,23.25
2017-08-09T02:02:35.148Z,23.37
2017-08-09T02:03:16.044Z,23.27
2017-08-09T02:03:56.938Z,23.24
2017-08-09T02:04:37.830Z,23.23
2017-08-09T02:05:18.720Z,23.27
2017-08-09T02:05:59.623Z,23.25
2017-08-09T02:06:40.506Z,23.09
2017-08-09T02:07:21.398Z,23.13
2017-08-09T02:08:02.293Z,23.06
2017-08-09T02:08:43.189Z,22.85
2017-08-09T02:09:24.088Z,22.87
2017-08-09T02:10:04.992Z,23.02
2017-08-09T02:10:45.884Z,22.83
2017-08-09T02:11:26.786Z,22.99
2017-08-09T02:12:07.673Z,22.9
2017-08-09T02:12:48.568Z,22.99
2017-08-09T02:13:29.467Z,23.05
2017-08-09T02:14:10.355Z,22.99
2017-08-09T02:14:51.248Z,22.96
2017-08-09T02:15:32.138Z,22.81
2017-08-09T02:16:13.024Z,22.88
2017-08-09T02:16:54.028Z,22.62
2017-08-09T02:17:34.941Z,22.7
2017-08-09T02:18:15.837Z,22.68
2017-08-09T02:18:56.738Z,22.75
2017-08-09T02:19:37.627Z,22.7
2017-08-09T02:20:18.526Z,22.7
2017-08-09T02:20:59.426Z,22.83
2017-08-09T02:21:40.317Z,22.9
2017-08-09T02:22:21.210Z,22.84
2017-08-09T02:23:02.107Z,22.85
2017-08-09T02:23:43.007Z,22.59
2017-08-09T02:24:23.897Z,22.72
2017-08-09T02:25:04.792Z,22.7
2017-08-09T02:25:45.700Z,22.57
2017-08-09T02:26:26.608Z,22.53
2017-08-09T02:27:07.490Z,22.51
2017-08-09T02:27:48.392Z,22.57
2017-08-09T02:28:29.298Z,22.59
2017-08-09T02:29:10.207Z,22.57
2017-08-09T02:29:51.091Z,22.6
2017-08-09T02:30:31.983Z,22.6
2017-08-09T02:31:12.888Z,22.45
2017-08-09T02:31:53.782Z,22.54
2017-08-09T02:32:34.681Z,22.48
2017-08-09T02:33:15.575Z,22.48
2017-08-09T02:33:56.473Z,22.51
2017-08-09T02:34:37.384Z,22.55
2017-08-09T02:35:18.275Z,22.41
2017-08-09T02:35:59.175Z,22.43
2017-08-09T02:36:40.060Z,22.36
2017-08-09T02:37:20.956Z,22.36
2017-08-09T02:38:01.856Z,22.28
2017-08-09T02:38:42.764Z,22.35
2017-08-09T02:39:23.651Z,22.33
2017-08-09T02:40:04.551Z,22.35
2017-08-09T02:40:45.442Z,22.28
2017-08-09T02:41:26.371Z,22.25
2017-08-09T02:42:07.232Z,22.28
2017-08-09T02:42:48.115Z,22.38
2017-08-09T02:43:29.039Z,22.36
2017-08-09T02:44:10.009Z,22.35
2017-08-09T02:44:50.902Z,22.23
2017-08-09T02:45:31.804Z,22.25
2017-08-09T02:46:12.709Z,22.23
2017-08-09T02:46:53.599Z,22.17
2017-08-09T02:47:34.498Z,22.18
2017-08-09T02:48:15.384Z,22.15
2017-08-09T02:48:56.282Z,22.13
2017-08-09T02:49:37.192Z,22.13
2017-08-09T02:50:18.068Z,22.11
2017-08-09T02:50:58.947Z,22.11
2017-08-09T02:51:39.852Z,22.13
2017-08-09T02:52:20.798Z,22.06
2017-08-09T02:53:01.632Z,22.02
2017-08-09T02:53:42.526Z,22.17
2017-08-09T02:54:23.421Z,22.15
2017-08-09T02:55:04.315Z,22.11
2017-08-09T02:55:45.295Z,22.13
2017-08-09T02:56:26.092Z,22.2
2017-08-09T02:57:07.000Z,22.2
2017-08-09T02:57:47.927Z,22.22
2017-08-09T02:58:28.814Z,22.17
2017-08-09T02:59:09.728Z,22.22
2017-08-09T02:59:50.605Z,22.23
2017-08-09T03:00:31.504Z,22.22
2017-08-09T03:01:12.397Z,22.2
2017-08-09T03:01:53.283Z,22.14
2017-08-09T03:02:34.176Z,22.06
2017-08-09T03:03:15.071Z,22.08
2017-08-09T03:03:55.957Z,22.08
2017-08-09T03:04:36.867Z,21.95
2017-08-09T03:05:17.751Z,22.04
2017-08-09T03:05:58.684Z,21.77
2017-08-09T03:06:39.572Z,21.82
2017-08-09T03:07:20.462Z,21.92
2017-08-09T03:08:01.361Z,21.95
2017-08-09T03:08:42.250Z,22.1
2017-08-09T03:09:23.129Z,21.99
2017-08-09T03:10:04.033Z,21.92
2017-08-09T03:10:44.917Z,21.99
2017-08-09T03:11:25.803Z,21.99
2017-08-09T03:12:06.693Z,21.95
2017-08-09T03:12:47.593Z,22
2017-08-09T03:13:28.481Z,22.13
2017-08-09T03:14:09.382Z,22
2017-08-09T03:14:50.279Z,21.99
2017-08-09T03:15:31.163Z,21.98
2017-08-09T03:16:12.063Z,21.83
2017-08-09T03:16:52.949Z,21.82
2017-08-09T03:17:33.838Z,21.82
2017-08-09T03:18:14.747Z,21.69
2017-08-09T03:18:55.645Z,21.72
2017-08-09T03:19:36.533Z,21.66
2017-08-09T03:20:17.444Z,21.61
2017-08-09T03:20:58.319Z,21.66
2017-08-09T03:21:39.238Z,21.67
2017-08-09T03:22:20.130Z,21.62
2017-08-09T03:23:01.026Z,21.69
2017-08-09T03:23:41.923Z,21.72
2017-08-09T03:24:22.826Z,21.73
2017-08-09T03:25:03.725Z,21.75
2017-08-09T03:25:44.615Z,21.76
2017-08-09T03:26:25.525Z,21.7
2017-08-09T03:27:06.421Z,21.73
2017-08-09T03:27:47.313Z,21.72
2017-08-09T03:28:28.203Z,21.67
2017-08-09T03:29:09.111Z,21.66
2017-08-09T03:29:49.984Z,21.73
2017-08-09T03:30:30.923Z,21.72
2017-08-09T03:31:11.823Z,21.73
2017-08-09T03:31:52.744Z,21.73
2017-08-09T03:32:33.621Z,21.72
2017-08-09T03:33:14.538Z,21.61
2017-08-09T03:33:55.425Z,21.6
2017-08-09T03:34:36.320Z,21.64
2017-08-09T03:35:17.213Z,21.62
2017-08-09T03:35:58.109Z,21.6
2017-08-09T03:36:39.004Z,21.66
2017-08-09T03:37:19.909Z,21.69
2017-08-09T03:38:00.776Z,21.57
2017-08-09T03:38:41.683Z,21.75
2017-08-09T03:39:22.590Z,21.61
2017-08-09T03:40:03.501Z,21.67
2017-08-09T03:40:44.407Z,21.62
2017-08-09T03:41:25.330Z,21.64
2017-08-09T03:42:06.225Z,21.66
2017-08-09T03:42:47.109Z,21.64
2017-08-09T03:43:28.006Z,21.69
2017-08-09T03:44:08.898Z,21.64
2017-08-09T03:44:49.789Z,21.58
2017-08-09T03:45:30.720Z,21.66
2017-08-09T03:46:11.612Z,21.61
2017-08-09T03:46:52.500Z,21.61
2017-08-09T03:47:33.395Z,21.62
2017-08-09T03:48:14.277Z,21.66
2017-08-09T03:48:55.168Z,21.6
2017-08-09T03:49:36.066Z,21.61
2017-08-09T03:50:16.949Z,21.55
2017-08-09T03:50:57.839Z,21.66
2017-08-09T03:51:38.725Z,21.55
2017-08-09T03:52:19.631Z,21.5
2017-08-09T03:53:00.579Z,21.55
2017-08-09T03:53:41.479Z,21.66
2017-08-09T03:54:22.364Z,21.64
2017-08-09T03:55:03.262Z,21.7
2017-08-09T03:55:44.191Z,21.6
2017-08-09T03:56:25.087Z,21.58
2017-08-09T03:57:05.975Z,21.62
2017-08-09T03:57:46.881Z,21.6
2017-08-09T03:58:27.759Z,21.55
2017-08-09T03:59:08.654Z,21.66
2017-08-09T03:59:49.554Z,21.62
2017-08-09T04:00:30.438Z,21.75
2017-08-09T04:01:11.326Z,21.73
2017-08-09T04:01:52.214Z,21.66
2017-08-09T04:02:33.104Z,21.61
2017-08-09T04:03:14.006Z,21.48
2017-08-09T04:03:54.896Z,21.45
2017-08-09T04:04:35.808Z,21.48
2017-08-09T04:05:16.711Z,21.48
2017-08-09T04:05:57.607Z,21.55
2017-08-09T04:06:38.505Z,21.61
2017-08-09T04:07:19.399Z,21.61
2017-08-09T04:08:00.292Z,21.66
2017-08-09T04:08:41.201Z,21.64
2017-08-09T04:09:22.083Z,21.61
2017-08-09T04:10:02.967Z,21.7
2017-08-09T04:10:43.850Z,21.69
2017-08-09T04:11:24.739Z,21.58
2017-08-09T04:12:05.633Z,21.57
2017-08-09T04:12:46.535Z,21.58
2017-08-09T04:13:27.434Z,21.54
2017-08-09T04:14:08.322Z,21.6
2017-08-09T04:14:49.213Z,21.66
2017-08-09T04:15:30.128Z,21.61
2017-08-09T04:16:10.987Z,21.64
2017-08-09T04:16:51.879Z,21.69
2017-08-09T04:17:32.766Z,21.72
2017-08-09T04:18:13.660Z,21.62
2017-08-09T04:18:54.557Z,21.58
2017-08-09T04:19:35.485Z,21.62
2017-08-09T04:20:16.356Z,21.5
2017-08-09T04:20:57.281Z,21.54
2017-08-09T04:21:38.166Z,21.48
2017-08-09T04:22:19.066Z,21.57
2017-08-09T04:22:59.948Z,21.52
2017-08-09T04:23:40.841Z,21.72
2017-08-09T04:24:21.741Z,21.7
2017-08-09T04:25:02.638Z,21.72
2017-08-09T04:25:43.529Z,21.69
2017-08-09T04:26:24.425Z,21.69
2017-08-09T04:27:05.301Z,21.73
2017-08-09T04:27:46.197Z,21.6
2017-08-09T04:28:27.093Z,21.62
2017-08-09T04:29:07.983Z,21.6
2017-08-09T04:29:48.875Z,21.6
2017-08-09T04:30:29.766Z,21.64
2017-08-09T04:31:10.669Z,21.58
2017-08-09T04:31:51.573Z,21.69
2017-08-09T04:32:32.473Z,21.67
2017-08-09T04:33:13.346Z,21.6
2017-08-09T04:33:54.245Z,21.61
2017-08-09T04:34:35.134Z,21.55
2017-08-09T04:35:16.018Z,21.61
2017-08-09T04:35:56.901Z,21.55
2017-08-09T04:36:37.795Z,21.55
2017-08-09T04:37:18.679Z,21.51
2017-08-09T04:37:59.568Z,21.48
2017-08-09T04:38:40.465Z,21.43
2017-08-09T04:39:21.364Z,21.43
2017-08-09T04:40:02.245Z,21.39
2017-08-09T04:40:43.154Z,21.48
2017-08-09T04:41:24.048Z,21.43
2017-08-09T04:42:04.942Z,21.42
2017-08-09T04:42:45.880Z,21.4
2017-08-09T04:43:26.727Z,21.43
2017-08-09T04:44:07.630Z,21.42
2017-08-09T04:44:48.513Z,21.42
2017-08-09T04:45:29.400Z,21.43
2017-08-09T04:46:10.298Z,21.4
2017-08-09T04:46:51.196Z,21.46
2017-08-09T04:47:32.093Z,21.4
2017-08-09T04:48:13.032Z,21.37
2017-08-09T04:48:53.916Z,21.45
2017-08-09T04:49:34.825Z,21.42
2017-08-09T04:50:15.717Z,21.42
2017-08-09T04:50:56.617Z,21.36
2017-08-09T04:51:37.520Z,21.42
2017-08-09T04:52:18.411Z,21.4
2017-08-09T04:52:59.318Z,21.42
2017-08-09T04:53:40.206Z,21.39
2017-08-09T04:54:21.162Z,21.42
2017-08-09T04:55:02.048Z,21.39
2017-08-09T04:55:42.964Z,21.39
2017-08-09T04:56:23.839Z,21.4
2017-08-09T04:57:04.725Z,21.24
2017-08-09T04:57:45.632Z,21.29
2017-08-09T04:58:26.514Z,21.24
2017-08-09T04:59:07.397Z,21.14
2017-08-09T04:59:48.286Z,21.24
2017-08-09T05:00:29.172Z,21.24
2017-08-09T05:01:10.092Z,21.27
2017-08-09T05:01:50.988Z,21.2
2017-08-09T05:02:31.878Z,21.18
2017-08-09T05:03:12.773Z,21.14
2017-08-09T05:03:53.677Z,21.27
2017-08-09T05:04:34.572Z,21.18
2017-08-09T05:05:15.473Z,21.22
2017-08-09T05:05:56.369Z,21.33
2017-08-09T05:06:37.266Z,21.33
2017-08-09T05:07:18.160Z,21.42
2017-08-09T05:07:59.059Z,21.45
2017-08-09T05:08:39.956Z,21.4
2017-08-09T05:09:20.848Z,21.42
2017-08-09T05:10:01.743Z,21.36
2017-08-09T05:10:42.642Z,21.43
2017-08-09T05:11:23.542Z,21.4
2017-08-09T05:12:04.437Z,21.39
2017-08-09T05:12:45.331Z,21.42
2017-08-09T05:13:26.228Z,21.39
2017-08-09T05:14:07.138Z,21.39
2017-08-09T05:14:48.031Z,21.46
2017-08-09T05:15:28.929Z,21.3
2017-08-09T05:16:09.820Z,21.33
2017-08-09T05:16:50.726Z,21.37
2017-08-09T05:17:31.610Z,21.37
2017-08-09T05:18:12.506Z,21.62
2017-08-09T05:18:53.399Z,21.51
2017-08-09T05:19:34.292Z,21.57
2017-08-09T05:20:15.187Z,21.46
2017-08-09T05:20:56.072Z,21.83
2017-08-09T05:21:36.957Z,21.85
2017-08-09T05:22:17.849Z,21.95
2017-08-09T05:22:58.749Z,21.95
2017-08-09T05:23:39.637Z,21.92
2017-08-09T05:24:20.561Z,22.07
2017-08-09T05:25:01.450Z,22.17
2017-08-09T05:25:42.343Z,22.15
2017-08-09T05:26:23.243Z,22.29
2017-08-09T05:27:04.153Z,22.23
2017-08-09T05:27:45.039Z,22.28
2017-08-09T05:28:26.000Z,22.26
2017-08-09T05:29:06.889Z,22.41
2017-08-09T05:29:47.784Z,22.48
2017-08-09T05:30:28.672Z,22.38
2017-08-09T05:31:09.557Z,22.36
2017-08-09T05:31:50.459Z,22.39
2017-08-09T05:32:31.361Z,22.22
2017-08-09T05:33:12.258Z,22.15
2017-08-09T05:33:53.169Z,22.23
2017-08-09T05:34:34.047Z,22.1
2017-08-09T05:35:14.933Z,21.99
2017-08-09T05:35:55.838Z,21.85
2017-08-09T05:36:36.728Z,21.95
2017-08-09T05:37:17.628Z,22.17
2017-08-09T05:37:58.519Z,22.23
2017-08-09T05:38:39.424Z,22.23
2017-08-09T05:39:20.311Z,22.23
2017-08-09T05:40:01.194Z,22.13
2017-08-09T05:40:42.087Z,22.23
2017-08-09T05:41:23.002Z,22.15
2017-08-09T05:42:03.894Z,22.25
2017-08-09T05:42:44.796Z,22.26
2017-08-09T05:43:25.690Z,22.32
2017-08-09T05:44:06.601Z,22.41
2017-08-09T05:44:47.509Z,22.28
2017-08-09T05:45:28.411Z,22.29
2017-08-09T05:46:09.297Z,22.29
2017-08-09T05:46:50.209Z,22.28
2017-08-09T05:47:31.096Z,22.25
2017-08-09T05:48:12.002Z,22.35
2017-08-09T05:48:52.906Z,22.39
2017-08-09T05:49:33.797Z,22.29
2017-08-09T05:50:14.723Z,22.38
2017-08-09T05:50:55.630Z,22.43
2017-08-09T05:51:36.520Z,22.43
2017-08-09T05:52:17.427Z,22.48
2017-08-09T05:52:58.332Z,22.39
2017-08-09T05:53:39.215Z,22.44
2017-08-09T05:54:20.110Z,22.41
2017-08-09T05:55:01.547Z,22.35
2017-08-09T05:55:42.449Z,22.36
2017-08-09T05:56:23.339Z,22.18
2017-08-09T05:57:04.251Z,22.14
2017-08-09T05:57:45.127Z,22.15
2017-08-09T05:58:26.013Z,21.96
2017-08-09T05:59:06.941Z,21.83
2017-08-09T05:59:47.838Z,21.93
2017-08-09T06:00:28.744Z,22
2017-08-09T06:01:09.629Z,21.67
2017-08-09T06:01:50.527Z,21.7
2017-08-09T06:02:31.418Z,21.69
2017-08-09T06:03:12.322Z,21.7
2017-08-09T06:03:53.209Z,21.72
2017-08-09T06:04:34.097Z,21.83
2017-08-09T06:05:14.984Z,21.95
2017-08-09T06:05:55.907Z,22.18
2017-08-09T06:06:36.800Z,22.3
2017-08-09T06:07:17.696Z,22.39
2017-08-09T06:07:58.592Z,22.17
2017-08-09T06:08:39.489Z,22.1
2017-08-09T06:09:20.382Z,22.22
2017-08-09T06:10:01.273Z,22.1
2017-08-09T06:10:42.174Z,22.28
2017-08-09T06:11:23.080Z,22.3
2017-08-09T06:12:03.968Z,22.35
2017-08-09T06:12:44.874Z,22.36
2017-08-09T06:13:25.756Z,22.32
2017-08-09T06:14:06.651Z,22.26
2017-08-09T06:14:47.559Z,21.99
2017-08-09T06:15:28.468Z,22.07
2017-08-09T06:16:09.349Z,22.23
2017-08-09T06:16:50.233Z,22.23
2017-08-09T06:17:31.128Z,22.35
2017-08-09T06:18:12.029Z,22.35
2017-08-09T06:18:52.923Z,22.22
2017-08-09T06:19:33.824Z,22.1
2017-08-09T06:20:14.733Z,22
2017-08-09T06:20:55.641Z,21.96
2017-08-09T06:21:36.542Z,22.1
2017-08-09T06:22:17.440Z,22.11
2017-08-09T06:22:58.341Z,22.07
2017-08-09T06:23:39.234Z,22.08
2017-08-09T06:24:20.132Z,22.13
2017-08-09T06:25:01.026Z,22
2017-08-09T06:25:41.933Z,21.95
2017-08-09T06:26:22.854Z,22
2017-08-09T06:27:03.796Z,21.99
2017-08-09T06:27:44.710Z,21.93
2017-08-09T06:28:25.566Z,21.91
2017-08-09T06:29:06.457Z,21.93
2017-08-09T06:29:47.353Z,22.08
2017-08-09T06:30:28.246Z,22.11
2017-08-09T06:31:09.133Z,22.08
2017-08-09T06:31:50.068Z,21.96
2017-08-09T06:32:30.896Z,21.93
2017-08-09T06:33:11.807Z,21.8
2017-08-09T06:33:52.713Z,21.95
2017-08-09T06:34:33.596Z,21.95
2017-08-09T06:35:14.515Z,21.98
2017-08-09T06:35:55.417Z,22.11
2017-08-09T06:36:36.305Z,21.88
2017-08-09T06:37:17.212Z,21.85
2017-08-09T06:37:58.135Z,21.96
2017-08-09T06:38:39.009Z,22.07
2017-08-09T06:39:19.911Z,22.04
2017-08-09T06:40:00.810Z,22.08
2017-08-09T06:40:41.700Z,21.88
2017-08-09T06:41:22.600Z,21.96
2017-08-09T06:42:03.498Z,21.95
2017-08-09T06:42:44.399Z,21.99
2017-08-09T06:43:25.291Z,21.92
2017-08-09T06:44:06.183Z,22.08
2017-08-09T06:44:47.085Z,22.29
2017-08-09T06:45:27.994Z,22.23
2017-08-09T06:46:08.893Z,22.29
2017-08-09T06:46:49.783Z,22.39
2017-08-09T06:47:30.670Z,22.48
2017-08-09T06:48:11.557Z,22.41
2017-08-09T06:48:52.459Z,22.81
2017-08-09T06:49:33.486Z,23.27
2017-08-09T06:50:14.354Z,23.92
2017-08-09T06:50:55.295Z,24.35
2017-08-09T06:51:36.187Z,24.69
2017-08-09T06:52:17.080Z,24.28
2017-08-09T06:52:57.988Z,24.01
2017-08-09T06:53:38.884Z,23.93
2017-08-09T06:54:19.780Z,23.5
2017-08-09T06:55:00.687Z,23.62
2017-08-09T06:55:41.602Z,23.63
2017-08-09T06:56:22.501Z,23.5
2017-08-09T06:57:03.409Z,23.62
2017-08-09T06:57:44.301Z,23.43
2017-08-09T06:58:25.209Z,23.56
2017-08-09T06:59:06.094Z,23.39
2017-08-09T06:59:47.001Z,23.44
2017-08-09T07:00:27.897Z,23.58
2017-08-09T07:01:08.798Z,24.01
2017-08-09T07:01:49.697Z,24.4
2017-08-09T07:02:30.590Z,24.81
2017-08-09T07:03:11.499Z,25.47
2017-08-09T07:03:52.398Z,25.73
2017-08-09T07:04:33.295Z,26.06
2017-08-09T07:05:14.198Z,26.13
2017-08-09T07:05:55.107Z,26.37
2017-08-09T07:06:36.016Z,26.44
2017-08-09T07:07:16.931Z,25.51
2017-08-09T07:07:57.829Z,25.7
2017-08-09T07:08:38.717Z,26.13
2017-08-09T07:09:19.623Z,26.37
2017-08-09T07:10:00.538Z,26.03
2017-08-09T07:10:41.442Z,25.98
2017-08-09T07:11:22.353Z,26.15
2017-08-09T07:12:03.263Z,25.77
2017-08-09T07:12:44.151Z,25.1
2017-08-09T07:13:25.054Z,24.42
2017-08-09T07:14:05.963Z,24.17
2017-08-09T07:14:46.844Z,24.02
2017-08-09T07:15:27.757Z,24.17
2017-08-09T07:16:08.643Z,24.6
2017-08-09T07:16:49.550Z,24.88
2017-08-09T07:17:30.458Z,25.25
2017-08-09T07:18:11.360Z,25.6
2017-08-09T07:18:52.271Z,25.88
2017-08-09T07:19:33.163Z,26.1
2017-08-09T07:20:14.069Z,26.28
2017-08-09T07:20:54.979Z,26.37
2017-08-09T07:21:35.887Z,26.6
2017-08-09T07:22:16.778Z,26.47
2017-08-09T07:22:57.678Z,26.43
2017-08-09T07:23:38.585Z,26.88
2017-08-09T07:24:19.481Z,26.99
2017-08-09T07:25:00.384Z,26.88
2017-08-09T07:25:41.291Z,26.44
2017-08-09T07:26:22.193Z,26.7
2017-08-09T07:27:03.111Z,26.65
2017-08-09T07:27:44.022Z,26.73
2017-08-09T07:28:24.916Z,26.66
2017-08-09T07:29:05.811Z,26.45
2017-08-09T07:29:46.715Z,26.38
2017-08-09T07:30:27.623Z,26.71
2017-08-09T07:31:08.534Z,26.84
2017-08-09T07:31:49.451Z,27.02
2017-08-09T07:32:30.350Z,27.14
2017-08-09T07:33:11.247Z,27.2
2017-08-09T07:33:52.151Z,27.05
2017-08-09T07:34:33.051Z,26.97
2017-08-09T07:35:13.958Z,26.96
2017-08-09T07:35:54.850Z,26.85
2017-08-09T07:36:35.746Z,26.78
2017-08-09T07:37:16.648Z,26.59
2017-08-09T07:37:57.550Z,26.55
2017-08-09T07:38:38.460Z,26.34
2017-08-09T07:39:19.387Z,25.84
2017-08-09T07:40:00.290Z,25.69
2017-08-09T07:40:41.175Z,25.4
2017-08-09T07:41:22.058Z,25.58
2017-08-09T07:42:02.955Z,25.73
2017-08-09T07:42:43.853Z,25.96
2017-08-09T07:43:24.771Z,26.16
2017-08-09T07:44:05.656Z,25.43
2017-08-09T07:44:46.572Z,25.18
2017-08-09T07:45:27.482Z,25.77
2017-08-09T07:46:08.369Z,25.68
2017-08-09T07:46:49.273Z,26.26
2017-08-09T07:47:30.173Z,26.71
2017-08-09T07:48:11.089Z,26.81
2017-08-09T07:48:51.981Z,26.9
2017-08-09T07:49:32.881Z,27.08
2017-08-09T07:50:13.789Z,27.29
2017-08-09T07:50:54.694Z,26.74
2017-08-09T07:51:35.598Z,26.77
2017-08-09T07:52:16.503Z,26.99
2017-08-09T07:52:57.416Z,26.41
2017-08-09T07:53:38.320Z,26
2017-08-09T07:54:19.256Z,26.53
2017-08-09T07:55:00.148Z,26.73
2017-08-09T07:55:41.052Z,26.9
2017-08-09T07:56:21.944Z,26.84
2017-08-09T07:57:02.849Z,27
2017-08-09T07:57:43.738Z,27.12
2017-08-09T07:58:24.646Z,27.2
2017-08-09T07:59:05.606Z,27.39
2017-08-09T07:59:46.512Z,27.55
2017-08-09T08:00:27.398Z,27.7
2017-08-09T08:01:08.301Z,27.73
2017-08-09T08:01:49.208Z,27.65
2017-08-09T08:02:30.121Z,27.85
2017-08-09T08:03:11.022Z,27.95
2017-08-09T08:03:51.930Z,27.96
2017-08-09T08:04:32.844Z,28.01
2017-08-09T08:05:13.752Z,27.92
2017-08-09T08:05:54.659Z,27.83
2017-08-09T08:06:35.568Z,27.73
2017-08-09T08:07:16.471Z,27.67
2017-08-09T08:07:57.357Z,27.83
2017-08-09T08:08:38.269Z,27.4
2017-08-09T08:09:19.174Z,26.38
2017-08-09T08:10:00.088Z,25.73
2017-08-09T08:10:40.978Z,25.36
2017-08-09T08:11:21.889Z,25.38
2017-08-09T08:12:02.812Z,25.84
2017-08-09T08:12:43.760Z,26.13
2017-08-09T08:13:24.662Z,26.58
2017-08-09T08:14:05.588Z,26.85
2017-08-09T08:14:46.453Z,27.21
2017-08-09T08:15:27.366Z,27.29
2017-08-09T08:16:08.277Z,27.21
2017-08-09T08:16:49.185Z,27.14
2017-08-09T08:17:30.072Z,27.1
2017-08-09T08:18:10.975Z,27.08
2017-08-09T08:18:51.873Z,26.97
2017-08-09T08:19:32.767Z,26.66
2017-08-09T08:20:13.672Z,26.85
2017-08-09T08:20:54.576Z,26.85
2017-08-09T08:21:35.489Z,26.8
2017-08-09T08:22:16.380Z,26.71
2017-08-09T08:22:57.310Z,26.77
2017-08-09T08:23:38.196Z,26.77
2017-08-09T08:24:19.109Z,26.96
2017-08-09T08:25:00.005Z,27.05
2017-08-09T08:25:40.900Z,26.45
2017-08-09T08:26:21.828Z,25.65
2017-08-09T08:27:02.708Z,25.17
2017-08-09T08:27:45.996Z,25.84
2017-08-09T08:28:26.914Z,26
2017-08-09T08:29:07.816Z,25.98
2017-08-09T08:29:48.710Z,25.72
2017-08-09T08:30:29.613Z,25.4
2017-08-09T08:31:10.526Z,25.59
2017-08-09T08:31:51.415Z,24.69
2017-08-09T08:32:32.314Z,24.16
2017-08-09T08:33:13.232Z,24.35
2017-08-09T08:33:54.134Z,24.23
2017-08-09T08:34:35.049Z,24.36
2017-08-09T08:35:15.967Z,24.54
2017-08-09T08:35:56.870Z,24.6
2017-08-09T08:36:37.767Z,24.85
2017-08-09T08:37:18.677Z,25.35
2017-08-09T08:37:59.584Z,25.5
2017-08-09T08:38:40.486Z,25.69
2017-08-09T08:39:21.402Z,25.73
2017-08-09T08:40:02.309Z,25.54
2017-08-09T08:40:43.208Z,24.88
2017-08-09T08:41:24.109Z,24.58
2017-08-09T08:42:05.010Z,24.99
2017-08-09T08:42:45.926Z,24.61
2017-08-09T08:43:26.821Z,24.51
2017-08-09T08:44:07.724Z,24.51
2017-08-09T08:44:48.622Z,24.58
2017-08-09T08:45:29.529Z,25.17
2017-08-09T08:46:10.433Z,25.51
2017-08-09T08:46:51.342Z,25.99
2017-08-09T08:47:32.232Z,26.41
2017-08-09T08:48:13.185Z,26.68
2017-08-09T08:48:54.083Z,26.77
2017-08-09T08:49:34.986Z,27.29